Time,TemperatureF,DewpointF,PressureIn,WindDirection,WindDirectionDegrees,WindSpeedMPH,WindSpeedGustMPH,Humidity,HourlyPrecipIn,Conditions,Clouds,dailyrainin,SolarRadiationWatts/m^2,SoftwareType,DateUTC
2013-04-18 00:13:00,44.0,23.0,30.15,ESE,116,0.0,-999.0,44,-99.99,,,0.00,0,weatherlink.com 1.10,2013-04-18 07:13:00,
2013-04-18 00:28:00,43.7,25.0,30.15,SE,130,0.0,-999.0,49,-99.99,,,0.00,0,weatherlink.com 1.10,2013-04-18 07:28:00,
2013-04-18 00:43:00,42.7,24.0,30.15,ESE,110,0.0,-999.0,47,-99.99,,,0.00,0,weatherlink.com 1.10,2013-04-18 07:43:00,
2013-04-18 00:58:00,41.8,23.0,30.15,ESE,110,0.0,-999.0,48,-99.99,,,0.00,0,weatherlink.com 1.10,2013-04-18 07:58:00,
2013-04-18 01:13:00,41.1,24.0,30.15,ESE,110,0.0,-999.0,51,-99.99,,,0.00,0,weatherlink.com 1.10,2013-04-18 08:13:00,
2013-04-18 01:28:00,41.1,24.0,30.15,ESE,110,0.0,-999.0,52,-99.99,,,0.00,0,weatherlink.com 1.10,2013-04-18 08:28:00,
2013-04-18 01:43:00,40.5,23.0,30.15,ESE,110,0.0,-999.0,51,-99.99,,,0.00,0,weatherlink.com 1.10,2013-04-18 08:43:00,
2013-04-18 01:58:00,39.8,23.0,30.15,ESE,110,0.0,-999.0,52,-99.99,,,0.00,0,weatherlink.com 1.10,2013-04-18 08:58:00,
2013-04-18 02:13:00,39.5,23.0,30.15,ESE,110,0.0,-999.0,51,-99.99,,,0.00,0,weatherlink.com 1.10,2013-04-18 09:13:00,
2013-04-18 02:28:00,39.2,23.0,30.14,ESE,110,0.0,-999.0,53,-99.99,,,0.00,0,weatherlink.com 1.10,2013-04-18 09:28:00,
2013-04-18 02:43:00,39.1,23.0,30.14,ESE,110,0.0,-999.0,53,-99.99,,,0.00,0,weatherlink.com 1.10,2013-04-18 09:43:00,
2013-04-18 02:58:00,38.9,24.0,30.14,ESE,110,0.0,-999.0,55,-99.99,,,0.00,0,weatherlink.com 1.10,2013-04-18 09:58:00,
2013-04-18 03:13:00,38.7,24.0,30.14,ENE,66,0.0,-999.0,56,-99.99,,,0.00,0,weatherlink.com 1.10,2013-04-18 10:13:00,
2013-04-18 03:28:00,38.4,24.0,30.14,ENE,68,0.0,-999.0,56,-99.99,,,0.00,0,weatherlink.com 1.10,2013-04-18 10:28:00,
2013-04-18 03:43:00,38.5,25.0,30.14,ENE,68,0.0,-999.0,58,-99.99,,,0.00,0,weatherlink.com 1.10,2013-04-18 10:43:00,
2013-04-18 03:58:00,38.6,24.0,30.14,ENE,68,0.0,-999.0,57,-99.99,,,0.00,0,weatherlink.com 1.10,2013-04-18 10:58:00,
2013-04-18 04:13:00,38.6,24.0,30.14,ENE,68,0.0,-999.0,57,-99.99,,,0.00,0,weatherlink.com 1.10,2013-04-18 11:13:00,
2013-04-18 04:28:00,38.6,25.0,30.14,ENE,68,0.0,-999.0,59,-99.99,,,0.00,0,weatherlink.com 1.10,2013-04-18 11:28:00,
2013-04-18 04:43:00,39.3,24.0,30.15,ENE,68,0.0,-999.0,54,-99.99,,,0.00,0,weatherlink.com 1.10,2013-04-18 11:43:00,
2013-04-18 04:58:00,39.6,23.0,30.15,ENE,68,0.0,-999.0,51,-99.99,,,0.00,0,weatherlink.com 1.10,2013-04-18 11:58:00,
2013-04-18 05:13:00,40.9,23.0,30.14,ENE,75,0.0,-999.0,49,-99.99,,,0.00,0,weatherlink.com 1.10,2013-04-18 12:13:00,
2013-04-18 05:28:00,44.5,22.0,30.15,SE,139,0.0,-999.0,41,-99.99,,,0.00,0,weatherlink.com 1.10,2013-04-18 12:28:00,
2013-04-18 05:43:00,48.7,21.0,30.15,ESE,115,0.0,-999.0,34,-99.99,,,0.00,0,weatherlink.com 1.10,2013-04-18 12:43:00,
2013-04-18 05:58:00,50.5,21.0,30.15,SE,135,0.0,-999.0,32,-99.99,,,0.00,0,weatherlink.com 1.10,2013-04-18 12:58:00,
2013-04-18 06:13:00,50.4,21.0,30.16,ESE,114,0.0,-999.0,32,-99.99,,,0.00,0,weatherlink.com 1.10,2013-04-18 13:13:00,
2013-04-18 06:28:00,49.6,20.0,30.17,ESE,114,0.0,-999.0,31,-99.99,,,0.00,12,weatherlink.com 1.10,2013-04-18 13:28:00,
2013-04-18 06:43:00,51.6,19.0,30.18,ESE,111,0.0,-999.0,28,-99.99,,,0.00,25,weatherlink.com 1.10,2013-04-18 13:43:00,
2013-04-18 06:59:00,54.8,19.0,30.19,East,92,0.0,-999.0,25,-99.99,,,0.00,77,weatherlink.com 1.10,2013-04-18 13:59:00,
2013-04-18 07:14:00,59.1,21.0,30.19,East,88,0.0,-999.0,23,-99.99,,,0.00,135,weatherlink.com 1.10,2013-04-18 14:14:00,
2013-04-18 07:29:00,60.0,24.0,30.20,East,91,0.0,-999.0,25,-99.99,,,0.00,200,weatherlink.com 1.10,2013-04-18 14:29:00,
2013-04-18 07:44:00,61.3,25.0,30.20,East,91,0.0,-999.0,25,-99.99,,,0.00,269,weatherlink.com 1.10,2013-04-18 14:44:00,
2013-04-18 07:59:00,64.0,22.0,30.20,ENE,63,0.0,-999.0,20,-99.99,,,0.00,327,weatherlink.com 1.10,2013-04-18 14:59:00,
2013-04-18 08:14:00,67.4,20.0,30.20,North,360,4.0,-999.0,16,-99.99,,,0.00,387,weatherlink.com 1.10,2013-04-18 15:14:00,
2013-04-18 08:29:00,69.3,18.0,30.19,ENE,71,3.0,-999.0,14,-99.99,,,0.00,439,weatherlink.com 1.10,2013-04-18 15:29:00,
2013-04-18 08:44:00,70.6,19.0,30.19,ENE,78,3.0,-999.0,14,-99.99,,,0.00,492,weatherlink.com 1.10,2013-04-18 15:44:00,
2013-04-18 08:59:00,72.1,17.0,30.18,NNE,15,2.0,-999.0,12,-99.99,,,0.00,545,weatherlink.com 1.10,2013-04-18 15:59:00,
2013-04-18 09:14:00,72.9,15.0,30.18,East,91,3.0,-999.0,11,-99.99,,,0.00,598,weatherlink.com 1.10,2013-04-18 16:14:00,
2013-04-18 09:29:00,73.3,16.0,30.18,ESE,123,3.0,-999.0,11,-99.99,,,0.00,643,weatherlink.com 1.10,2013-04-18 16:29:00,
2013-04-18 09:44:00,74.4,16.0,30.18,ENE,76,5.0,-999.0,11,-99.99,,,0.00,687,weatherlink.com 1.10,2013-04-18 16:44:00,
2013-04-18 09:59:00,75.8,15.0,30.18,NE,45,0.0,-999.0,10,-99.99,,,0.00,729,weatherlink.com 1.10,2013-04-18 16:59:00,
2013-04-18 10:14:00,76.5,13.0,30.18,East,86,3.0,-999.0,9,-99.99,,,0.00,768,weatherlink.com 1.10,2013-04-18 17:14:00,
2013-04-18 10:30:00,77.8,14.0,30.19,East,91,0.0,-999.0,9,-99.99,,,0.00,803,weatherlink.com 1.10,2013-04-18 17:30:00,
2013-04-18 10:45:00,78.5,17.0,30.19,ENE,73,0.0,-999.0,10,-99.99,,,0.00,833,weatherlink.com 1.10,2013-04-18 17:45:00,
2013-04-18 11:00:00,77.7,26.0,30.19,SW,221,3.0,-999.0,15,-99.99,,,0.00,860,weatherlink.com 1.10,2013-04-18 18:00:00,
2013-04-18 11:15:00,76.0,23.0,30.19,West,266,0.0,-999.0,14,-99.99,,,0.00,884,weatherlink.com 1.10,2013-04-18 18:15:00,
2013-04-18 11:30:00,76.6,26.0,30.19,WNW,292,0.0,-999.0,15,-99.99,,,0.00,909,weatherlink.com 1.10,2013-04-18 18:30:00,
2013-04-18 11:45:00,76.8,18.0,30.18,NW,308,3.0,-999.0,11,-99.99,,,0.00,926,weatherlink.com 1.10,2013-04-18 18:45:00,
2013-04-18 12:00:00,78.0,21.0,30.18,West,259,3.0,-999.0,12,-99.99,,,0.00,940,weatherlink.com 1.10,2013-04-18 19:00:00,
2013-04-18 12:15:00,78.5,22.0,30.17,WSW,252,7.0,-999.0,12,-99.99,,,0.00,951,weatherlink.com 1.10,2013-04-18 19:15:00,
2013-04-18 12:30:00,79.1,22.0,30.16,WNW,290,0.0,-999.0,12,-99.99,,,0.00,954,weatherlink.com 1.10,2013-04-18 19:30:00,
2013-04-18 12:45:00,79.7,18.0,30.16,South,172,0.0,-999.0,10,-99.99,,,0.00,954,weatherlink.com 1.10,2013-04-18 19:45:00,
2013-04-18 13:00:00,79.0,20.0,30.16,West,271,1.0,-999.0,11,-99.99,,,0.00,951,weatherlink.com 1.10,2013-04-18 20:00:00,
2013-04-18 13:15:00,78.9,22.0,30.16,NW,304,1.0,-999.0,12,-99.99,,,0.00,946,weatherlink.com 1.10,2013-04-18 20:15:00,
2013-04-18 13:30:00,78.7,20.0,30.15,SW,226,2.0,-999.0,11,-99.99,,,0.00,935,weatherlink.com 1.10,2013-04-18 20:30:00,
2013-04-18 13:45:00,78.9,20.0,30.15,NNW,335,0.0,-999.0,11,-99.99,,,0.00,921,weatherlink.com 1.10,2013-04-18 20:45:00,
2013-04-18 14:00:00,78.6,20.0,30.14,West,264,12.0,-999.0,11,-99.99,,,0.00,904,weatherlink.com 1.10,2013-04-18 21:00:00,
2013-04-18 14:15:00,78.5,22.0,30.14,West,271,3.0,-999.0,12,-99.99,,,0.00,882,weatherlink.com 1.10,2013-04-18 21:15:00,
2013-04-18 14:30:00,78.4,24.0,30.14,WSW,250,0.0,-999.0,13,-99.99,,,0.00,858,weatherlink.com 1.10,2013-04-18 21:30:00,
2013-04-18 14:45:00,78.4,24.0,30.14,NW,322,5.0,-999.0,13,-99.99,,,0.00,824,weatherlink.com 1.10,2013-04-18 21:45:00,
2013-04-18 15:00:00,78.6,24.0,30.13,WSW,252,8.0,-999.0,13,-99.99,,,0.00,791,weatherlink.com 1.10,2013-04-18 22:00:00,
2013-04-18 15:15:00,78.3,22.0,30.12,West,264,5.0,-999.0,12,-99.99,,,0.00,758,weatherlink.com 1.10,2013-04-18 22:15:00,
2013-04-18 15:30:00,78.4,20.0,30.12,WSW,248,7.0,-999.0,11,-99.99,,,0.00,719,weatherlink.com 1.10,2013-04-18 22:30:00,
2013-04-18 15:45:00,78.4,20.0,30.12,West,271,1.0,-999.0,11,-99.99,,,0.00,675,weatherlink.com 1.10,2013-04-18 22:45:00,
2013-04-18 16:00:00,77.9,19.0,30.11,West,280,4.0,-999.0,11,-99.99,,,0.00,631,weatherlink.com 1.10,2013-04-18 23:00:00,
2013-04-18 16:15:00,77.8,19.0,30.11,West,260,5.0,-999.0,11,-99.99,,,0.00,584,weatherlink.com 1.10,2013-04-18 23:15:00,
2013-04-18 16:30:00,78.5,20.0,30.11,WSW,245,1.0,-999.0,11,-99.99,,,0.00,534,weatherlink.com 1.10,2013-04-18 23:30:00,
2013-04-18 16:45:00,78.1,19.0,30.11,WNW,301,2.0,-999.0,11,-99.99,,,0.00,483,weatherlink.com 1.10,2013-04-18 23:45:00,
2013-04-18 17:00:00,77.1,21.0,30.11,West,261,3.0,-999.0,12,-99.99,,,0.00,431,weatherlink.com 1.10,2013-04-19 00:00:00,
2013-04-18 17:15:00,77.4,19.0,30.12,WNW,285,5.0,-999.0,11,-99.99,,,0.00,378,weatherlink.com 1.10,2013-04-19 00:15:00,
2013-04-18 17:30:00,76.0,20.0,30.12,West,266,2.0,-999.0,12,-99.99,,,0.00,176,weatherlink.com 1.10,2013-04-19 00:30:00,
2013-04-18 17:45:00,75.1,19.0,30.12,NNW,328,3.0,-999.0,12,-99.99,,,0.00,120,weatherlink.com 1.10,2013-04-19 00:45:00,
2013-04-18 18:00:00,74.8,21.0,30.12,WNW,292,1.0,-999.0,13,-99.99,,,0.00,86,weatherlink.com 1.10,2013-04-19 01:00:00,
2013-04-18 18:15:00,74.9,24.0,30.13,WNW,288,1.0,-999.0,15,-99.99,,,0.00,137,weatherlink.com 1.10,2013-04-19 01:15:00,
2013-04-18 18:30:00,73.8,23.0,30.13,WNW,299,1.0,-999.0,15,-99.99,,,0.00,30,weatherlink.com 1.10,2013-04-19 01:30:00,
2013-04-18 18:45:00,72.1,22.0,30.14,NW,309,3.0,-999.0,15,-99.99,,,0.00,23,weatherlink.com 1.10,2013-04-19 01:45:00,
2013-04-18 19:00:00,70.6,21.0,30.14,NW,309,1.0,-999.0,15,-99.99,,,0.00,16,weatherlink.com 1.10,2013-04-19 02:00:00,
2013-04-18 19:15:00,69.3,21.0,30.15,WNW,303,0.0,-999.0,16,-99.99,,,0.00,7,weatherlink.com 1.10,2013-04-19 02:15:00,
2013-04-18 19:30:00,68.4,23.0,30.15,NW,316,0.0,-999.0,18,-99.99,,,0.00,0,weatherlink.com 1.10,2013-04-19 02:30:00,
2013-04-18 19:45:00,67.1,23.0,30.16,NW,316,0.0,-999.0,19,-99.99,,,0.00,0,weatherlink.com 1.10,2013-04-19 02:45:00,
2013-04-18 20:00:00,66.4,24.0,30.16,NW,316,0.0,-999.0,20,-99.99,,,0.00,0,weatherlink.com 1.10,2013-04-19 03:00:00,
2013-04-18 20:16:00,65.5,30.0,30.17,NW,316,0.0,-999.0,26,-99.99,,,0.00,0,weatherlink.com 1.10,2013-04-19 03:16:00,
2013-04-18 20:31:00,63.0,33.0,30.17,North,349,0.0,-999.0,33,-99.99,,,0.00,0,weatherlink.com 1.10,2013-04-19 03:31:00,
2013-04-18 20:46:00,60.8,37.0,30.17,North,360,0.0,-999.0,41,-99.99,,,0.00,0,weatherlink.com 1.10,2013-04-19 03:46:00,
2013-04-18 21:01:00,59.8,30.0,30.18,North,360,0.0,-999.0,33,-99.99,,,0.00,0,weatherlink.com 1.10,2013-04-19 04:01:00,
2013-04-18 21:16:00,58.0,27.0,30.17,North,360,0.0,-999.0,30,-99.99,,,0.00,0,weatherlink.com 1.10,2013-04-19 04:16:00,
2013-04-18 21:31:00,56.7,26.0,30.17,North,360,0.0,-999.0,31,-99.99,,,0.00,0,weatherlink.com 1.10,2013-04-19 04:31:00,
2013-04-18 21:46:00,55.3,24.0,30.18,North,360,0.0,-999.0,30,-99.99,,,0.00,0,weatherlink.com 1.10,2013-04-19 04:46:00,
2013-04-18 22:01:00,54.2,24.0,30.18,North,360,0.0,-999.0,31,-99.99,,,0.00,0,weatherlink.com 1.10,2013-04-19 05:01:00,
2013-04-18 22:16:00,53.1,28.0,30.17,North,360,0.0,-999.0,38,-99.99,,,0.00,0,weatherlink.com 1.10,2013-04-19 05:16:00,
2013-04-18 22:31:00,52.0,28.0,30.17,North,360,0.0,-999.0,40,-99.99,,,0.00,0,weatherlink.com 1.10,2013-04-19 05:31:00,
2013-04-18 22:46:00,51.2,26.0,30.17,North,360,0.0,-999.0,37,-99.99,,,0.00,0,weatherlink.com 1.10,2013-04-19 05:46:00,
2013-04-18 23:01:00,50.1,25.0,30.17,North,360,0.0,-999.0,37,-99.99,,,0.00,0,weatherlink.com 1.10,2013-04-19 06:01:00,
2013-04-18 23:16:00,49.7,25.0,30.17,North,360,0.0,-999.0,39,-99.99,,,0.00,0,weatherlink.com 1.10,2013-04-19 06:16:00,
2013-04-18 23:31:00,49.1,25.0,30.17,North,360,0.0,-999.0,39,-99.99,,,0.00,0,weatherlink.com 1.10,2013-04-19 06:31:00,
2013-04-18 23:46:00,48.0,23.0,30.17,North,360,0.0,-999.0,38,-99.99,,,0.00,0,weatherlink.com 1.10,2013-04-19 06:46:00,